Climax, Minnesota
Current Conditions -  °F | °C
As of 8:14 PM on Thursday 18 Dec 2014 (Local Time) from KCKN Reporting Station
Overcast Overcast  
Wind Chill:   Ceiling: 2300
Heat Index: 19°   Visibility: 10mi
Dew Point: 16°   Wind: 12mph
Humidity: 86%   Direction: 170°S
Pressure: 30.18"   Gusts: NA
Location:  47.61°N, 96.82°W
Report Text: KCKN 190214Z AUTO 17010KT 10SM OVC023 M07/M09 A3018 RMK AO2
Loading
Personal Weather Stations






























Interactive Weather Map New forecast layout! Learn more

10-Day Weather Forecast

Advertisements
Track Severe Weather on mobile